Thursday, January 18, 2018, 11:03 PM EST
Back to Local

KBUF, Greater Buffalo International Airport

Location: Buffalo, NY, United States Lat: 42.933
Local Time: 11:03 PM EST ( 4:03 GMT) Lon: -78.733
Time Zone: US/Eastern Elev: 725 ft

Show me the last for .
Show Decoded

2018-01-18 21:54 METAR KBUF 190254Z 22015G20KT 10SM OVC140 M04/M10 A2994 RMK AO2 SLP152 T10391100
                 56019 =
2018-01-18 20:54 METAR KBUF 190154Z 21012KT 10SM OVC140 M06/M11 A2996 RMK AO2 SLP157 T10561106 =
2018-01-18 19:54 METAR KBUF 190054Z 21008KT 10SM SCT035 SCT140 BKN200 BKN280 M06/M09 A2999 RMK
                 AO2 SLP167 T10611089 =
2018-01-18 18:54 METAR KBUF 182354Z 23011KT 10SM FEW015 FEW140 BKN210 BKN280 M05/M09 A3000 RMK
                 AO2 SLP171 60001 4/007 T10501089 11050 21072 55003 =
2018-01-18 17:54 METAR KBUF 182254Z 24015G22KT 10SM FEW013 BKN180 BKN280 M06/M09 A3000 RMK AO2
                 SLP171 T10561094 =
2018-01-18 16:54 METAR KBUF 182154Z 24018G26KT 10SM FEW016 SCT180 SCT280 M06/M09 A3000 RMK AO2 PK
                 WND 25028/2116 SNE32 SLP171 DRSN P0000 T10611094 =
2018-01-18 16:35 METAR KBUF 182135Z 24014G23KT 9SM SCT017 BKN260 M06/M09 A3000 RMK AO2 PK WND
                 25028/2116 SNE32 DRSN P0000 T10611089 =
2018-01-18 15:54 METAR KBUF 182054Z 24022G28KT 6SM -SN BLSN BKN016 OVC022 M06/M09 A3001 RMK AO2
                 PK WND 24030/2008 SLP175 VIS LWR W-N-NE VIS HYR SW P0000 60000 T10611089 58008 =
2018-01-18 15:42 METAR KBUF 182042Z 24017G29KT 6SM -SN BLSN BKN016 OVC022 M06/M09 A3002 RMK AO2
                 PK WND 24030/2008 VIS LWR W-N-NE VIS HYR SW P0000 T10611089 =
2018-01-18 15:16 METAR KBUF 182016Z 24017G30KT 3SM -SN BLSN OVC014 M07/M09 A3002 RMK AO2 PK WND
                 24030/2008 VIS W-N-NE 1V2 P0000 T10671089 =
2018-01-18 14:54 METAR KBUF 181954Z 23016G32KT 2SM R23/5000VP6000FT -SN BLSN FEW011 OVC016
                 M07/M09 A3002 RMK AO2 PK WND 24034/1934 SLP180 P0000 T10671089 =
2018-01-18 14:39 METAR KBUF 181939Z 24023G34KT 2SM R23/3500VP6000FT -SN BLSN FEW011 OVC016
                 M07/M09 A3002 RMK AO2 PK WND 24034/1934 VIS W-N-NE 3/4V1 1/2 P0000 T10671094 =
2018-01-18 13:54 METAR KBUF 181854Z 24019G27KT 1SM R23/4000V5500FT -SN BLSN FEW009 BKN013 OVC020
                 M07/M09 A3002 RMK AO2 PK WND 22031/1810 SLP181 P0000 T10721089 =
2018-01-18 13:51 METAR KBUF 181851Z 24018G26KT 1SM R23/3500V5500FT -SN BLSN FEW009 BKN013 OVC020
                 M07/M09 A3002 RMK AO2 PK WND 22031/1810 P0000 =
2018-01-18 13:19 METAR KBUF 181819Z 23021G31KT 3/4SM R23/3500V5000FT -SN BLSN FEW009 BKN013
                 OVC022 M07/M09 A3003 =
2018-01-18 12:54 METAR KBUF 181754Z 23020G28KT 1SM R23/4000V5500FT -SN BLSN FEW009 BKN014 OVC024
                 M07/M09 A3003 RMK AO2 PK WND 23032/1719 SLP185 P0000 60010 4/007 933010
                 T10721094 11072 21078 58013 =
2018-01-18 12:51 METAR KBUF 181751Z 23018G26KT 1SM R23/4000V5000FT -SN BLSN FEW009 BKN014 OVC024
                 M07/M09 A3003 RMK AO2 PK WND 23032/1719 P0000 =
2018-01-18 12:16 METAR KBUF 181716Z 24017G24KT 1SM R23/3500V5500FT -SN BLSN FEW009 SCT014 OVC026
                 M07/M09 A3005 RMK AO2 PK WND 24029/1658 P0000 T10721094 =
2018-01-18 11:54 METAR KBUF 181654Z COR 23018G28KT 3/4SM R23/3000V4000FT -SN BLSN FEW009 SCT014
                 OVC026 M08/M10 A3006 RMK AO2 PK WND 26030/1643 SLP195 VIS OCNLY 1/2 P0000
                 T10781100 =
2018-01-18 11:17 METAR KBUF 181617Z 23021G28KT 3/4SM R23/2800V5000FT -SN BLSN FEW009 SCT014
                 OVC026 M08/M10 A3007 RMK AO2 PK WND 22029/1556 VIS NW-NE 1/4 P0000 T10781100 =
2018-01-18 10:54 METAR KBUF 181554Z 23018G31KT 1/2SM R23/3000V4000FT SN BLSN FEW009 BKN014 OVC028
                 M08/M10 A3008 RMK AO2 PK WND 23031/1526 SLP198 P0000 T10781100 =
2018-01-18 10:50 METAR KBUF 181550Z 24019G31KT 1/2SM R23/3000V4000FT SN BLSN FEW009 BKN014 OVC028
                 M08/M10 A3007 RMK AO2 PK WND 23031/1526 VIS OCNLY 1/4 P0000 =
2018-01-18 09:54 METAR KBUF 181454Z 23021G31KT 1/2SM R23/2600V3500FT SN BLSN OVC012 M08/M10 A3006
                 RMK AO2 PK WND 25031/1442 SLP195 VIS OCNLY 1/4 P0000 60000 T10781100 53006 =
2018-01-18 09:01 METAR KBUF 181401Z 24017G24KT 3/4SM R23/4000V5000FT -SN BLSN BKN012 BKN017
                 OVC021 M08/M10 A3006 RMK AO2 P0000 T10781100 $ =
2018-01-18 08:54 METAR KBUF 181354Z 24014G26KT 1SM R23/3500V5500FT -SN BLSN FEW012 BKN017 OVC021
                 M08/M10 A3006 RMK AO2 PK WND 23032/1301 SLP193 P0000 T10781100 $ =
2018-01-18 08:29 METAR KBUF 181329Z 24020G31KT 3/4SM R23/3500V6000FT -SN BLSN FEW012 OVC017
                 M08/M11 A3005 RMK AO2 PK WND 23032/1301 P0000 T10781106 $ =
2018-01-18 08:07 METAR KBUF 181307Z 24019G32KT 1 3/4SM -SN BLSN OVC018 M08/M11 A3005 RMK AO2 PK
                 WND 23032/1301 P0000 T10781106 $ =
2018-01-18 07:54 METAR KBUF 181254Z 24016G31KT 5SM -SN BLSN OVC019 M08/M11 A3004 RMK AO2 PK WND
                 23032/1241 SLP187 P0000 T10781111 $ =
2018-01-18 06:54 METAR KBUF 181154Z 24021G31KT 6SM -SN BLSN OVC020 M08/M12 A3005 RMK AO2 PK WND
                 25033/1115 SNB51 SLP188 P0000 60000 70007 4/007 T10781117 11078 21100 55007 $ =
2018-01-18 06:11 METAR KBUF 181111Z 24023G30KT 8SM BKN024 M08/M12 A3005 RMK AO2 PK WND 23030/1110
                 T10781117 $ =
2018-01-18 05:54 METAR KBUF 181054Z 25019G31KT 8SM FEW025 M08/M12 A3004 RMK AO2 PK WND 24032/1042
                 SLP186 T10781122 $ =
2018-01-18 04:54 METAR KBUF 180954Z 24020G29KT 7SM CLR M08/M12 A3005 RMK AO2 PK WND 22030/0944
                 SLP188 T10781122 $ =
2018-01-18 03:54 METAR KBUF 180854Z 23017G25KT 10SM CLR M08/M14 A3007 RMK AO2 SLP196 T10831139
                 56006 $ =
2018-01-18 02:54 METAR KBUF 180754Z 22017G23KT 10SM FEW019 M09/M14 A3007 RMK AO2 SLP198 T10891144
                 $ =
2018-01-18 01:54 METAR KBUF 180654Z 22013KT 10SM FEW019 M10/M14 A3007 RMK AO2 SLP199 T11001139 $
                 =
2018-01-18 00:54 METAR KBUF 180554Z COR 21018G22KT 10SM FEW019 M09/M13 A3009 RMK AO2 PK WND
                 21027/0520 SNB00E24 SLP203 DRSN 4/007 P0000 60000 T10941133 11072 21094 56023 $
                 =
2018-01-18 00:01 METAR KBUF 180501Z 22017G24KT 9SM -SN SCT019 M09/M13 A3011 RMK AO2 SNB00 DRSN
                 P0000 T10891128 $ =
2018-01-17 23:54 METAR KBUF 180454Z 22017KT 8SM BKN019 M09/M12 A3011 RMK AO2 PK WND 21028/0430
                 SNE52 SLP210 P0000 T10891122 410721117 $ =

Support USWX by starting your Amazon purchase here.